Aérodrome :
LOGIN :

S'inscrire | Disclaimer

   EN    FR    IT 

 










Légende :    VFR   VFR Marginal   IFR   IFR Intensif   IFR Très Intensif
Visi : 
Plafond : 
>= 8 km
>= 3000ft
5 à 8 km
1000 à 3000 ft
1500m à 5 km
500 à 1000 ft
800 à 1500m
200 à 500 ft
< 800m
< 200 ft
Symboles :   Orages  Brouillard  Fortes neiges  Fortes précipitations  Vent > 20 kt
SIGMETs :   Divers  Orages  Givrage  Turbulence  Onde Orograph.  Cendres Volcan.






- Altitude de l'aérodrome : 614 ft
- Code IATA : CRL


EBCI - Charleroi

DERNIER METAR :
  • 120020Z 20008KT 9999 FEW012 BKN035 04/03 Q1003 NOSIG

METARs EXPIRÉS :
  • 112350Z 21008KT 9999 FEW012 BKN035 04/03 Q1003 NOSIG
  • 112320Z 21010KT 9999 -SHRA SCT012 04/03 Q1004 NOSIG
  • 112250Z 23011KT 9999 SCT012 04/03 Q1004 NOSIG
  • 112220Z 21011KT CAVOK 04/03 Q1003 NOSIG
  • 112150Z 21011KT CAVOK 04/02 Q1003 NOSIG

TAF TAF EBCI
Valide du 12 à 00h jusqu'au 13 à 06h UTC


112310Z 1200/1306 21009KT 9999 SCT012 SCT018
PROB40
TEMPO 1200/1212 2000 SHRA SHRAGS SCT005 BKN007CB
BECMG 1219/1221 SCT007 BKN011
TEMPO 1221/1306 3000 -RA -RADZ SCT004 BKN006



MET'MAP, la Météo Aéronautique d'un coup d'oeil ! - Copyright ORBIFLY Décembre 2007 - Disclaimer

ORBIFLY MET'MAP TEAM :

Programmation & Développement : Alexandra Zaïnal
Conception & Développement : Baudouin d'Aumeries
Co-Programmation & Développement : Marc-Olivier Méhu
Soutien technique & logistique : Manuel Goepfert

Contact : metmap@orbifly.com




SOURCES & CREDITS :

   NOAA